Anna-meta — A8XN3 — position and weather

sailwx.info

Track history (hours):
 
Tides and Currents Weather Stations Pressure Air Temp Water Temp Dewpoint Dewpoint Depression Visibility Wind Speed Wind Dir Waves Ship Positions

Anna-meta

Last reported at 2017-Jun-02 20:27 UTC. Time now 2017-Jun-22 14:23 UTC.
Position N 32°55' E 124°24'.
Warning: this ship's position is 19 days out of date.

Length 190 m; draft 13.1 m.

Type: Cargo ship. MMSI: 636092143.

Date/timePositionNaut miles runAvg speedWind from/ knotsBaromVisibWave heightAir tempDewpointWater temp
2017-Jun-02 20:27N 32°55' E 124°24'511.3
2017-Jun-02 20:01N 32°50' E 124°22'1411.2
2017-Jun-02 18:46N 32°37' E 124°19'310.9
2017-Jun-02 18:30N 32°34' E 124°18'810.8
2017-Jun-02 17:46N 32°26' E 124°17'310.6
2017-Jun-02 17:30N 32°23' E 124°17'510.5
2017-Jun-02 17:01N 32°18' E 124°16'510.5
2017-Jun-02 16:30N 32°13' E 124°15'2810.3
2017-Jun-02 13:45N 31°45' E 124°07'311.0
2017-Jun-02 13:27N 31°42' E 124°06'511.2
2017-Jun-02 13:00N 31°37' E 124°05'711.0
2017-Jun-02 12:21N 31°30' E 124°02'911.2
2017-Jun-02 11:32N 31°21' E 124°01'111.2
2017-Jun-02 11:29N 31°20' E 124°01'1711.4
2017-Jun-02 09:59N 31°04' E 123°56'1111.9
2017-Jun-02 09:04N 30°53' E 123°52'3 8.3
2017-Jun-02 08:42N 30°50' E 123°52'2010.4
2017-Jun-02 06:44N 30°30' E 123°48'311.7
2017-Jun-02 06:29N 30°27' E 123°47'1411.6
2017-Jun-02 05:18N 30°14' E 123°44'  
2017-May-25 17:59N 01°15' E 104°04'510.5
2017-May-25 17:30N 01°15' E 103°59'3 5.9
2017-May-25 17:00N 01°17' E 103°56'1 1.0
2017-May-25 16:29N 01°17' E 103°56'0 0.1
2017-May-25 15:59N 01°17' E 103°56'0 0.2
2017-May-25 15:29N 01°17' E 103°56'0 0.1
2017-May-25 14:43N 01°17' E 103°56'0 0.0
2017-May-25 14:28N 01°17' E 103°56'0 0.0
2017-May-25 13:28N 01°17' E 103°56'0 0.0
2017-May-25 12:59N 01°17' E 103°56'0 0.0
2017-May-25 12:28N 01°17' E 103°56'0 0.0
2017-May-25 11:52N 01°17' E 103°56'0 0.0
2017-May-25 11:26N 01°17' E 103°56'0 0.0
2017-May-25 10:59N 01°17' E 103°56'0 0.0
2017-May-25 10:29N 01°17' E 103°56'0 0.0
2017-May-25 09:55N 01°17' E 103°56'0 0.1
2017-May-25 09:28N 01°17' E 103°56'0 0.1
2017-May-25 08:59N 01°17' E 103°56'0 0.2
2017-May-25 08:30N 01°17' E 103°56'  
Track history (hours):
 
Tides and Currents Weather Stations Pressure Air Temp Water Temp Dewpoint Dewpoint Depression Visibility Wind Speed Wind Dir Waves Ship Positions

Anna-meta

Last reported at 2017-Jun-02 20:27 UTC. Time now 2017-Jun-22 14:23 UTC.
Position N 32°55' E 124°24'.
Warning: this ship's position is 19 days out of date.

Length 190 m; draft 13.1 m.

Type: Cargo ship. MMSI: 636092143.

Date/timePositionNaut miles runAvg speedWind from/ knotsBaromVisibWave heightAir tempDewpointWater temp
2017-Jun-02 20:27N 32°55' E 124°24'511.3
2017-Jun-02 20:01N 32°50' E 124°22'1411.2
2017-Jun-02 18:46N 32°37' E 124°19'310.9
2017-Jun-02 18:30N 32°34' E 124°18'810.8
2017-Jun-02 17:46N 32°26' E 124°17'310.6
2017-Jun-02 17:30N 32°23' E 124°17'510.5
2017-Jun-02 17:01N 32°18' E 124°16'510.5
2017-Jun-02 16:30N 32°13' E 124°15'2810.3
2017-Jun-02 13:45N 31°45' E 124°07'311.0
2017-Jun-02 13:27N 31°42' E 124°06'511.2
2017-Jun-02 13:00N 31°37' E 124°05'711.0
2017-Jun-02 12:21N 31°30' E 124°02'911.2
2017-Jun-02 11:32N 31°21' E 124°01'111.2
2017-Jun-02 11:29N 31°20' E 124°01'1711.4
2017-Jun-02 09:59N 31°04' E 123°56'1111.9
2017-Jun-02 09:04N 30°53' E 123°52'3 8.3
2017-Jun-02 08:42N 30°50' E 123°52'2010.4
2017-Jun-02 06:44N 30°30' E 123°48'311.7
2017-Jun-02 06:29N 30°27' E 123°47'1411.6
2017-Jun-02 05:18N 30°14' E 123°44'  
2017-May-25 17:59N 01°15' E 104°04'510.5
2017-May-25 17:30N 01°15' E 103°59'3 5.9
2017-May-25 17:00N 01°17' E 103°56'1 1.0
2017-May-25 16:29N 01°17' E 103°56'0 0.1
2017-May-25 15:59N 01°17' E 103°56'0 0.2
2017-May-25 15:29N 01°17' E 103°56'0 0.1
2017-May-25 14:43N 01°17' E 103°56'0 0.0
2017-May-25 14:28N 01°17' E 103°56'0 0.0
2017-May-25 13:28N 01°17' E 103°56'0 0.0
2017-May-25 12:59N 01°17' E 103°56'0 0.0
2017-May-25 12:28N 01°17' E 103°56'0 0.0
2017-May-25 11:52N 01°17' E 103°56'0 0.0
2017-May-25 11:26N 01°17' E 103°56'0 0.0
2017-May-25 10:59N 01°17' E 103°56'0 0.0
2017-May-25 10:29N 01°17' E 103°56'0 0.0
2017-May-25 09:55N 01°17' E 103°56'0 0.1
2017-May-25 09:28N 01°17' E 103°56'0 0.1
2017-May-25 08:59N 01°17' E 103°56'0 0.2
2017-May-25 08:30N 01°17' E 103°56'  

Dump ship's entire track history